Key West International Airport
KEYW : now visible

Airfield :











YOU CAN JOIN US ON...

 
LOGIN :

Register | Disclaimer

   EN    FR    IT 

 









Legend :    VFR   Marginal VFR   IFR   Intensive IFR   Very Intensive IFR
Visi :
Ceiling :
>= 8 km
>= 3000ft
5 to 8 km
1000 to 3000 ft
1500m to 5 km
500 to 1000 ft
800 to 1500m
200 to 500 ft
< 800m
< 200 ft
Symbols :   Thunderstorms  Fog  Heavy snow  Heavy precipitations  Wind > 20 kt






- Airport Elevation : 3 ft
- IATA code : EYW


KEYW - Key West International

CURRENT METAR :
  • 231853Z 23005KT 10SM FEW034 SCT055 31/23 A3010 RMK AO2 SLP192 T03110233

EXPIRED METARs :
  • 231753Z 22006KT 10SM SCT030 BKN044 BKN060 31/23 A3011 RMK AO2 SLP196 T03060233 10311 20289 58007
  • 231653Z 21005KT 10SM SCT048 SCT060 31/23 A3013 RMK AO2 LTG DSNT NW SLP202 T03060233

TAF KEYW
Valid from the 23 at 18:00 until the 24 at 18:00 UTC


231740Z 2318/2418 VRB06KT P6SM VCSH SCT025 SCT060
FM232200 VRB03KT P6SM FEW020 SCT200
KZMA FIR / North America



MET'MAP, your aeronautical weather chart ! - Copyright ORBIFLY December 2007 - Disclaimer

ORBIFLY MET'MAP TEAM :

Programming & Development : Alexandra Zaïnal
Concept & original design : Baudouin d'Aumeries
Assistance for programming : Marc-Olivier Méhu
Technical & hardware support : Manuel Goepfert

Contact : metmap@orbifly.com




SOURCES & CREDITS :

   NOAA       Earth
Advisory